createdAt,value
2019-05-19T00:01:12.340Z,77.48
2019-05-19T00:03:40.818Z,77.29
2019-05-19T00:06:09.331Z,76.97
2019-05-19T00:08:37.841Z,76.73
2019-05-19T00:11:06.286Z,77.05
2019-05-19T00:13:34.983Z,77.13
2019-05-19T00:16:06.264Z,76.97
2019-05-19T00:18:34.705Z,76.52
2019-05-19T00:21:03.136Z,76.69
2019-05-19T00:23:31.556Z,77.06
2019-05-19T00:25:59.994Z,77.31
2019-05-19T00:28:28.410Z,77.59
2019-05-19T00:30:56.845Z,77.73
2019-05-19T00:33:25.262Z,78.09
2019-05-19T00:35:53.700Z,78.02
2019-05-19T00:38:22.235Z,78.11
2019-05-19T00:40:50.671Z,78.28
2019-05-19T00:43:19.158Z,78.44
2019-05-19T00:45:47.632Z,78.54
2019-05-19T00:48:16.077Z,78.47
2019-05-19T00:50:46.438Z,78.56
2019-05-19T00:53:14.867Z,78.67
2019-05-19T00:55:43.549Z,79.33
2019-05-19T00:58:13.333Z,80.02
2019-05-19T01:00:43.199Z,79.51
2019-05-19T01:03:11.590Z,79.95
2019-05-19T01:05:40.022Z,80.71
2019-05-19T01:08:08.444Z,81.19
2019-05-19T01:10:36.927Z,80.68
2019-05-19T01:13:05.363Z,80.94
2019-05-19T01:15:33.800Z,81.04
2019-05-19T01:18:02.237Z,82.00
2019-05-19T01:20:30.866Z,81.34
2019-05-19T01:22:59.313Z,81.05
2019-05-19T01:25:27.792Z,81.47
2019-05-19T01:27:56.281Z,81.17
2019-05-19T01:30:24.869Z,80.82
2019-05-19T01:32:53.302Z,81.09
2019-05-19T01:35:21.790Z,81.68
2019-05-19T01:37:50.237Z,82.05
2019-05-19T01:40:18.676Z,83.04
2019-05-19T01:42:47.149Z,82.69
2019-05-19T01:45:16.541Z,83.31
2019-05-19T01:47:48.898Z,83.45
2019-05-19T01:50:18.596Z,83.56
2019-05-19T01:52:47.299Z,83.36
2019-05-19T01:55:15.893Z,82.31
2019-05-19T01:57:44.363Z,82.96
2019-05-19T02:00:13.229Z,82.30
2019-05-19T02:02:41.664Z,83.05
2019-05-19T02:05:10.634Z,83.38
2019-05-19T02:07:39.080Z,83.36
2019-05-19T02:10:09.562Z,83.08
2019-05-19T02:12:38.095Z,82.60
2019-05-19T02:15:07.452Z,82.73
2019-05-19T02:17:36.068Z,82.77
2019-05-19T02:20:07.580Z,82.64
2019-05-19T02:22:36.032Z,82.47
2019-05-19T02:25:06.187Z,82.83
2019-05-19T02:27:34.617Z,82.75
2019-05-19T02:30:03.864Z,82.54
2019-05-19T02:32:32.314Z,83.54
2019-05-19T02:35:00.737Z,83.56
2019-05-19T02:37:29.183Z,83.77
2019-05-19T02:39:57.620Z,84.46
2019-05-19T02:42:28.430Z,84.40
2019-05-19T02:44:57.650Z,85.10
2019-05-19T02:47:27.387Z,85.30
2019-05-19T02:49:57.264Z,84.26
2019-05-19T02:52:28.931Z,84.96
2019-05-19T02:54:59.303Z,83.92
2019-05-19T02:57:28.477Z,83.92
2019-05-19T02:59:57.467Z,83.34
2019-05-19T03:02:25.893Z,83.46
2019-05-19T03:04:54.317Z,84.30
2019-05-19T03:07:22.800Z,84.56
2019-05-19T03:09:51.261Z,84.27
2019-05-19T03:12:19.709Z,84.42
2019-05-19T03:14:48.127Z,84.25
2019-05-19T03:17:16.588Z,84.79
2019-05-19T03:19:45.030Z,84.62
2019-05-19T03:22:13.491Z,85.14
2019-05-19T03:24:41.941Z,84.86
2019-05-19T03:27:10.422Z,84.44
2019-05-19T03:29:40.535Z,84.36
2019-05-19T03:32:13.546Z,84.32
2019-05-19T03:34:42.032Z,84.44
2019-05-19T03:37:10.502Z,85.20
2019-05-19T03:39:38.932Z,84.59
2019-05-19T03:42:10.434Z,84.06
2019-05-19T03:44:37.555Z,84.25
2019-05-19T03:47:06.010Z,85.10
2019-05-19T03:49:34.448Z,85.02
2019-05-19T03:52:02.904Z,84.74
2019-05-19T03:54:31.348Z,84.91
2019-05-19T03:56:59.817Z,85.17
2019-05-19T03:59:28.249Z,84.71
2019-05-19T04:01:56.709Z,84.26
2019-05-19T04:04:26.730Z,84.23
2019-05-19T04:06:55.190Z,84.10
2019-05-19T04:09:23.638Z,85.01
2019-05-19T04:11:52.083Z,84.80
2019-05-19T04:14:20.544Z,85.00
2019-05-19T04:16:52.181Z,84.74
2019-05-19T04:19:20.588Z,84.81
2019-05-19T04:21:49.739Z,84.54
2019-05-19T04:24:18.364Z,83.97
2019-05-19T04:26:46.803Z,83.92
2019-05-19T04:29:15.251Z,83.72
2019-05-19T04:31:49.595Z,83.67
2019-05-19T04:34:18.061Z,84.16
2019-05-19T04:36:46.493Z,85.19
2019-05-19T04:39:14.920Z,84.70
2019-05-19T04:41:43.369Z,84.81
2019-05-19T04:44:11.876Z,84.43
2019-05-19T04:46:40.287Z,83.85
2019-05-19T04:49:08.738Z,84.13
2019-05-19T04:51:37.214Z,83.89
2019-05-19T04:54:05.629Z,84.43
2019-05-19T04:56:34.059Z,84.07
2019-05-19T04:59:02.574Z,83.63
2019-05-19T05:01:31.009Z,83.90
2019-05-19T05:03:59.464Z,83.94
2019-05-19T05:06:27.899Z,83.64
2019-05-19T05:08:56.342Z,83.58
2019-05-19T05:11:24.765Z,83.67
2019-05-19T05:13:53.235Z,82.79
2019-05-19T05:16:21.683Z,82.26
2019-05-19T05:18:50.119Z,82.05
2019-05-19T05:21:18.587Z,82.07
2019-05-19T05:23:47.133Z,81.91
2019-05-19T05:26:15.583Z,82.37
2019-05-19T05:28:44.029Z,81.76
2019-05-19T05:31:15.437Z,81.30
2019-05-19T05:33:42.624Z,81.59
2019-05-19T05:36:11.056Z,81.69
2019-05-19T05:38:39.484Z,81.47
2019-05-19T05:41:07.933Z,81.35
2019-05-19T05:43:36.380Z,80.95
2019-05-19T05:46:04.843Z,80.90
2019-05-19T05:48:33.314Z,80.43
2019-05-19T05:51:01.757Z,79.64
2019-05-19T05:53:30.188Z,79.08
2019-05-19T05:55:58.610Z,78.63
2019-05-19T05:58:27.105Z,75.89
2019-05-19T06:00:55.525Z,74.89
2019-05-19T06:03:23.954Z,75.98
2019-05-19T06:05:52.414Z,75.87
2019-05-19T06:08:20.860Z,75.60
2019-05-19T06:10:49.288Z,76.22
2019-05-19T06:13:17.776Z,74.67
2019-05-19T06:15:46.187Z,75.18
2019-05-19T06:18:14.658Z,73.06
2019-05-19T06:20:43.121Z,72.28
2019-05-19T06:23:11.533Z,73.66
2019-05-19T06:25:40.032Z,75.09
2019-05-19T06:28:08.432Z,74.42
2019-05-19T06:30:36.954Z,72.07
2019-05-19T06:33:05.608Z,72.59
2019-05-19T06:35:34.168Z,71.52
2019-05-19T06:38:03.107Z,70.84
2019-05-19T06:40:31.718Z,72.11
2019-05-19T06:43:01.919Z,71.05
2019-05-19T06:45:31.899Z,71.36
2019-05-19T06:48:00.342Z,71.14
2019-05-19T06:50:28.848Z,70.71
2019-05-19T06:53:12.837Z,70.02
2019-05-19T06:55:28.700Z,69.20
2019-05-19T06:57:57.125Z,68.51
2019-05-19T07:00:25.629Z,69.81
2019-05-19T07:02:54.058Z,68.56
2019-05-19T07:05:22.606Z,67.83
2019-05-19T07:07:51.002Z,67.10
2019-05-19T07:10:19.486Z,67.53
2019-05-19T07:12:47.957Z,67.60
2019-05-19T07:15:16.964Z,66.69
2019-05-19T07:17:45.453Z,66.85
2019-05-19T07:20:13.965Z,66.31
2019-05-19T07:22:42.546Z,65.98
2019-05-19T07:25:14.300Z,66.86
2019-05-19T07:27:42.719Z,66.02
2019-05-19T07:30:11.396Z,65.82
2019-05-19T07:32:39.884Z,65.31
2019-05-19T07:35:08.733Z,66.79
2019-05-19T07:37:37.144Z,66.45
2019-05-19T07:40:06.580Z,65.05
2019-05-19T07:42:36.818Z,64.70
2019-05-19T07:45:07.415Z,65.31
2019-05-19T07:47:35.878Z,64.21
2019-05-19T07:50:05.452Z,64.71
2019-05-19T07:52:33.932Z,64.60
2019-05-19T07:55:02.383Z,63.80
2019-05-19T07:57:30.816Z,63.81
2019-05-19T07:59:59.246Z,63.11
2019-05-19T08:02:27.722Z,62.85
2019-05-19T08:04:56.220Z,63.19
2019-05-19T08:07:26.312Z,62.50
2019-05-19T08:09:54.789Z,61.78
2019-05-19T08:12:23.227Z,62.00
2019-05-19T08:14:51.665Z,61.69
2019-05-19T08:17:21.480Z,61.82
2019-05-19T08:19:49.972Z,62.13
2019-05-19T08:22:18.518Z,61.26
2019-05-19T08:24:47.070Z,62.07
2019-05-19T08:27:15.507Z,63.02
2019-05-19T08:29:43.982Z,60.54
2019-05-19T08:32:12.415Z,61.73
2019-05-19T08:34:40.900Z,58.28
2019-05-19T08:37:09.484Z,57.26
2019-05-19T08:39:38.013Z,55.82
2019-05-19T08:42:06.493Z,55.82
2019-05-19T08:44:34.916Z,52.55
2019-05-19T08:47:03.376Z,53.33
2019-05-19T08:49:31.886Z,52.42
2019-05-19T08:52:01.724Z,52.65
2019-05-19T08:54:30.167Z,53.51
2019-05-19T08:56:58.622Z,53.75
2019-05-19T08:59:27.161Z,52.81
2019-05-19T09:01:58.381Z,51.50
2019-05-19T09:04:26.819Z,48.97
2019-05-19T09:06:55.292Z,49.61
2019-05-19T09:09:23.864Z,49.79
2019-05-19T09:11:53.910Z,48.00
2019-05-19T09:14:22.495Z,47.93
2019-05-19T09:16:50.937Z,51.52
2019-05-19T09:19:19.371Z,49.07
2019-05-19T09:21:47.837Z,50.07
2019-05-19T09:24:29.469Z,51.25
2019-05-19T09:26:46.533Z,49.01
2019-05-19T09:29:14.964Z,52.00
2019-05-19T09:31:43.441Z,51.29
2019-05-19T09:34:11.917Z,48.42
2019-05-19T09:36:40.400Z,48.02
2019-05-19T09:39:08.887Z,45.75
2019-05-19T09:41:37.340Z,45.63
2019-05-19T09:44:05.849Z,43.19
2019-05-19T09:46:34.304Z,43.20
2019-05-19T09:49:20.549Z,42.57
2019-05-19T09:51:49.024Z,44.59
2019-05-19T09:54:17.515Z,44.54
2019-05-19T09:56:45.976Z,42.20
2019-05-19T09:59:15.837Z,41.30
2019-05-19T10:01:44.214Z,43.34
2019-05-19T10:04:12.706Z,42.28
2019-05-19T10:06:41.131Z,44.93
2019-05-19T10:09:09.888Z,42.64
2019-05-19T10:12:00.275Z,42.47
2019-05-19T10:14:28.683Z,42.90
2019-05-19T10:16:57.286Z,43.96
2019-05-19T10:19:25.729Z,43.00
2019-05-19T10:21:54.343Z,43.96
2019-05-19T10:24:22.909Z,44.75
2019-05-19T10:26:51.720Z,43.56
2019-05-19T10:29:20.136Z,41.34
2019-05-19T10:31:48.666Z,41.43
2019-05-19T10:34:17.209Z,41.23
2019-05-19T10:36:45.709Z,39.62
2019-05-19T10:39:14.179Z,39.52
2019-05-19T10:41:42.868Z,40.46
2019-05-19T10:44:11.256Z,40.84
2019-05-19T10:46:39.766Z,38.02
2019-05-19T10:49:13.652Z,41.24
2019-05-19T10:51:42.164Z,41.10
2019-05-19T10:54:10.602Z,40.38
2019-05-19T10:56:39.026Z,42.09
2019-05-19T10:59:07.547Z,42.89
2019-05-19T11:01:35.930Z,43.15
2019-05-19T11:04:04.530Z,41.60
2019-05-19T11:06:32.803Z,40.75
2019-05-19T11:09:01.222Z,40.59
2019-05-19T11:11:29.743Z,39.14
2019-05-19T11:13:58.327Z,38.68
2019-05-19T11:16:26.850Z,38.42
2019-05-19T11:18:55.370Z,38.51
2019-05-19T11:21:23.773Z,38.21
2019-05-19T11:23:53.771Z,37.39
2019-05-19T11:26:22.308Z,35.77
2019-05-19T11:28:50.812Z,35.77
2019-05-19T11:31:19.343Z,39.08
2019-05-19T11:33:47.902Z,37.17
2019-05-19T11:36:16.331Z,36.46
2019-05-19T11:38:44.756Z,34.91
2019-05-19T11:41:13.204Z,38.54
2019-05-19T11:43:41.655Z,36.91
2019-05-19T11:46:10.099Z,36.53
2019-05-19T11:48:38.658Z,34.63
2019-05-19T11:51:07.062Z,36.07
2019-05-19T11:53:39.779Z,36.11
2019-05-19T11:56:11.407Z,35.37
2019-05-19T11:58:38.406Z,35.56
2019-05-19T12:01:06.853Z,34.39
2019-05-19T12:03:35.350Z,33.07
2019-05-19T12:06:03.799Z,35.10
2019-05-19T12:08:32.234Z,33.70
2019-05-19T12:11:00.671Z,32.84
2019-05-19T12:13:34.924Z,34.70
2019-05-19T12:16:02.630Z,34.97
2019-05-19T12:18:32.360Z,36.51
2019-05-19T12:21:00.846Z,37.39
2019-05-19T12:23:29.295Z,38.28
2019-05-19T12:25:57.793Z,36.03
2019-05-19T12:28:26.190Z,34.14
2019-05-19T12:30:54.721Z,29.38
2019-05-19T12:33:23.166Z,32.33
2019-05-19T12:35:51.599Z,31.92
2019-05-19T12:38:20.043Z,34.94
2019-05-19T12:40:48.493Z,32.11
2019-05-19T12:43:17.059Z,28.88
2019-05-19T12:45:45.542Z,30.70
2019-05-19T12:48:13.950Z,30.28
2019-05-19T12:50:42.394Z,28.63
2019-05-19T12:53:10.814Z,29.60
2019-05-19T12:55:39.235Z,30.34
2019-05-19T12:58:07.704Z,32.70
2019-05-19T13:00:39.198Z,33.99
2019-05-19T13:03:10.288Z,33.87
2019-05-19T13:05:41.337Z,33.68
2019-05-19T13:08:11.628Z,33.66
2019-05-19T13:10:40.165Z,34.21
2019-05-19T13:13:08.608Z,34.70
2019-05-19T13:15:37.056Z,35.65
2019-05-19T13:18:05.494Z,34.46
2019-05-19T13:20:33.923Z,36.46
2019-05-19T13:23:02.400Z,32.97
2019-05-19T13:25:30.916Z,29.62
2019-05-19T13:27:59.374Z,27.85
2019-05-19T13:30:27.922Z,25.83
2019-05-19T13:32:56.448Z,30.36
2019-05-19T13:35:30.738Z,33.07
2019-05-19T13:37:59.152Z,32.03
2019-05-19T13:40:27.606Z,32.75
2019-05-19T13:42:56.086Z,33.22
2019-05-19T13:45:24.572Z,34.88
2019-05-19T13:47:53.149Z,35.49
2019-05-19T13:50:21.551Z,32.09
2019-05-19T13:52:51.263Z,33.51
2019-05-19T13:55:19.954Z,33.54
2019-05-19T13:57:48.409Z,32.20
2019-05-19T14:00:17.181Z,32.96
2019-05-19T14:02:45.645Z,30.68
2019-05-19T14:05:17.264Z,31.62
2019-05-19T14:07:45.755Z,33.39
2019-05-19T14:10:14.784Z,33.10
2019-05-19T14:12:43.297Z,33.74
2019-05-19T14:15:11.782Z,35.25
2019-05-19T14:17:40.224Z,36.17
2019-05-19T14:20:09.251Z,35.01
2019-05-19T14:22:37.761Z,34.66
2019-05-19T14:25:07.008Z,36.11
2019-05-19T14:27:35.414Z,36.17
2019-05-19T14:30:05.193Z,36.19
2019-05-19T14:32:33.818Z,33.93
2019-05-19T14:35:02.319Z,34.11
2019-05-19T14:37:30.789Z,33.25
2019-05-19T14:39:59.272Z,32.29
2019-05-19T14:42:45.598Z,32.48
2019-05-19T14:45:14.345Z,34.48
2019-05-19T14:47:42.778Z,33.95
2019-05-19T14:50:11.383Z,33.02
2019-05-19T14:52:40.560Z,33.50
2019-05-19T14:55:11.885Z,34.38
2019-05-19T14:57:44.953Z,34.03
2019-05-19T15:00:11.369Z,33.40
2019-05-19T15:02:39.787Z,33.19
2019-05-19T15:05:08.548Z,33.11
2019-05-19T15:07:36.959Z,31.64
2019-05-19T15:10:06.743Z,31.23
2019-05-19T15:12:36.794Z,33.58
2019-05-19T15:15:07.155Z,32.86
2019-05-19T15:17:37.220Z,32.30
2019-05-19T15:20:11.179Z,32.36
2019-05-19T15:22:39.615Z,32.85
2019-05-19T15:25:08.774Z,32.82
2019-05-19T15:27:37.379Z,32.33
2019-05-19T15:30:13.108Z,32.49
2019-05-19T15:32:37.943Z,33.33
2019-05-19T15:35:08.355Z,34.22
2019-05-19T15:37:36.779Z,34.06
2019-05-19T15:40:08.151Z,35.18
2019-05-19T15:42:39.335Z,35.20
2019-05-19T15:45:08.777Z,35.93
2019-05-19T15:47:37.263Z,36.55
2019-05-19T15:50:09.878Z,35.11
2019-05-19T15:52:38.316Z,35.59
2019-05-19T15:55:06.922Z,35.84
2019-05-19T15:57:35.620Z,35.67
2019-05-19T16:00:08.266Z,35.96
2019-05-19T16:02:36.873Z,37.17
2019-05-19T16:05:06.761Z,36.07
2019-05-19T16:07:35.208Z,39.38
2019-05-19T16:10:05.905Z,36.13
2019-05-19T16:12:33.563Z,36.65
2019-05-19T16:15:02.163Z,37.40
2019-05-19T16:17:30.694Z,36.65
2019-05-19T16:19:59.241Z,35.97
2019-05-19T16:22:27.634Z,36.72
2019-05-19T16:24:56.099Z,39.22
2019-05-19T16:27:24.607Z,37.99
2019-05-19T16:29:55.835Z,41.01
2019-05-19T16:32:28.806Z,43.63
2019-05-19T16:34:56.333Z,45.88
2019-05-19T16:37:26.522Z,46.88
2019-05-19T16:40:02.048Z,45.89
2019-05-19T16:42:32.231Z,45.26
2019-05-19T16:45:00.682Z,46.26
2019-05-19T16:47:29.132Z,47.37
2019-05-19T16:49:57.600Z,47.72
2019-05-19T16:52:26.024Z,47.93
2019-05-19T16:55:35.816Z,47.92
2019-05-19T16:58:28.857Z,47.82
2019-05-19T17:00:57.077Z,47.46
2019-05-19T17:03:25.545Z,46.66
2019-05-19T17:05:56.015Z,47.79
2019-05-19T17:08:24.538Z,47.68
2019-05-19T17:10:53.075Z,47.45
2019-05-19T17:13:21.630Z,45.01
2019-05-19T17:15:51.635Z,46.24
2019-05-19T17:18:20.211Z,44.98
2019-05-19T17:20:53.981Z,44.42
2019-05-19T17:23:22.454Z,44.21
2019-05-19T17:25:50.924Z,45.16
2019-05-19T17:28:19.433Z,43.09
2019-05-19T17:30:47.878Z,43.00
2019-05-19T17:33:16.353Z,43.17
2019-05-19T17:35:44.885Z,43.00
2019-05-19T17:38:13.315Z,42.01
2019-05-19T17:40:41.855Z,42.45
2019-05-19T17:43:10.351Z,43.66
2019-05-19T17:45:38.875Z,43.20
2019-05-19T17:48:10.111Z,43.65
2019-05-19T17:50:37.648Z,44.36
2019-05-19T17:53:06.303Z,43.90
2019-05-19T17:55:38.157Z,43.75
2019-05-19T17:58:06.662Z,45.45
2019-05-19T18:00:45.991Z,46.60
2019-05-19T18:03:14.503Z,46.79
2019-05-19T18:05:43.049Z,45.62
2019-05-19T18:08:11.519Z,45.21
2019-05-19T18:10:39.969Z,45.45
2019-05-19T18:13:08.403Z,45.31
2019-05-19T18:15:37.326Z,47.29
2019-05-19T18:18:05.805Z,46.02
2019-05-19T18:20:34.365Z,46.45
2019-05-19T18:23:02.823Z,46.39
2019-05-19T18:25:31.382Z,47.78
2019-05-19T18:27:59.871Z,46.82
2019-05-19T18:30:29.601Z,47.50
2019-05-19T18:32:58.014Z,47.67
2019-05-19T18:35:26.456Z,48.13
2019-05-19T18:37:54.905Z,48.72
2019-05-19T18:40:23.418Z,49.04
2019-05-19T18:42:51.799Z,49.13
2019-05-19T18:45:20.259Z,49.35
2019-05-19T18:47:48.746Z,49.29
2019-05-19T18:50:17.331Z,49.86
2019-05-19T18:52:45.768Z,50.05
2019-05-19T18:55:14.277Z,50.99
2019-05-19T18:57:42.775Z,51.52
2019-05-19T19:00:11.456Z,52.98
2019-05-19T19:02:40.391Z,55.55
2019-05-19T19:05:09.013Z,54.49
2019-05-19T19:07:55.341Z,54.31
2019-05-19T19:10:23.870Z,54.92
2019-05-19T19:12:52.335Z,55.10
2019-05-19T19:15:20.810Z,54.40
2019-05-19T19:17:49.242Z,54.29
2019-05-19T19:20:17.755Z,55.19
2019-05-19T19:22:46.226Z,55.69
2019-05-19T19:25:14.632Z,55.43
2019-05-19T19:27:43.168Z,57.15
2019-05-19T19:30:12.650Z,58.11
2019-05-19T19:32:41.110Z,58.61
2019-05-19T19:35:10.079Z,59.66
2019-05-19T19:37:38.526Z,60.75
2019-05-19T19:40:08.573Z,58.28
2019-05-19T19:42:36.993Z,58.08
2019-05-19T19:45:06.957Z,58.00
2019-05-19T19:47:35.792Z,57.97
2019-05-19T19:50:09.092Z,60.02
2019-05-19T19:52:37.521Z,59.69
2019-05-19T19:55:09.009Z,59.42
2019-05-19T19:57:37.428Z,59.06
2019-05-19T20:00:17.978Z,59.23
2019-05-19T20:02:38.749Z,60.60
2019-05-19T20:05:08.267Z,60.12
2019-05-19T20:07:36.692Z,61.88
2019-05-19T20:10:08.703Z,60.86
2019-05-19T20:12:37.563Z,61.99
2019-05-19T20:15:07.107Z,62.61
2019-05-19T20:17:36.259Z,61.59
2019-05-19T20:20:06.676Z,61.14
2019-05-19T20:22:35.146Z,61.09
2019-05-19T20:25:03.991Z,61.24
2019-05-19T20:27:32.460Z,61.69
2019-05-19T20:30:00.875Z,62.09
2019-05-19T20:32:29.299Z,61.78
2019-05-19T20:34:57.763Z,64.26
2019-05-19T20:37:26.266Z,66.25
2019-05-19T20:39:54.669Z,65.70
2019-05-19T20:42:23.102Z,66.11
2019-05-19T20:44:51.537Z,65.68
2019-05-19T20:47:19.990Z,65.97
2019-05-19T20:49:48.407Z,64.23
2019-05-19T20:52:16.847Z,63.50
2019-05-19T20:54:45.271Z,64.41
2019-05-19T20:57:15.231Z,66.45
2019-05-19T20:59:43.623Z,67.55
2019-05-19T21:02:12.034Z,68.42
2019-05-19T21:04:40.476Z,68.34
2019-05-19T21:07:09.085Z,69.27
2019-05-19T21:09:37.510Z,67.24
2019-05-19T21:12:05.956Z,68.94
2019-05-19T21:14:34.374Z,70.27
2019-05-19T21:17:02.853Z,70.86
2019-05-19T21:19:31.271Z,71.42
2019-05-19T21:21:59.687Z,69.39
2019-05-19T21:24:28.134Z,68.47
2019-05-19T21:26:56.609Z,69.93
2019-05-19T21:29:24.974Z,70.56
2019-05-19T21:31:53.384Z,70.83
2019-05-19T21:34:21.803Z,71.62
2019-05-19T21:36:50.235Z,71.55
2019-05-19T21:39:18.680Z,71.23
2019-05-19T21:41:47.100Z,71.61
2019-05-19T21:44:15.519Z,72.39
2019-05-19T21:46:43.932Z,73.66
2019-05-19T21:49:12.359Z,73.11
2019-05-19T21:51:40.813Z,73.68
2019-05-19T21:54:09.253Z,73.28
2019-05-19T21:56:37.690Z,74.48
2019-05-19T21:59:06.193Z,74.40
2019-05-19T22:01:34.676Z,74.76
2019-05-19T22:04:03.124Z,74.49
2019-05-19T22:06:33.159Z,74.28
2019-05-19T22:09:01.615Z,74.26
2019-05-19T22:11:30.038Z,74.36
2019-05-19T22:13:58.536Z,74.69
2019-05-19T22:16:26.949Z,75.16
2019-05-19T22:18:55.417Z,75.89
2019-05-19T22:21:23.835Z,75.92
2019-05-19T22:23:52.267Z,76.25
2019-05-19T22:26:20.702Z,77.02
2019-05-19T22:28:49.144Z,76.72
2019-05-19T22:31:19.741Z,76.97
2019-05-19T22:33:47.715Z,77.06
2019-05-19T22:36:17.656Z,77.40
2019-05-19T22:38:46.946Z,77.80
2019-05-19T22:41:15.380Z,78.29
2019-05-19T22:43:43.809Z,79.21
2019-05-19T22:46:12.230Z,79.12
2019-05-19T22:48:40.672Z,79.21
2019-05-19T22:51:09.141Z,79.08
2019-05-19T22:53:37.585Z,78.69
2019-05-19T22:56:06.098Z,78.60
2019-05-19T22:58:34.543Z,78.84
2019-05-19T23:01:02.978Z,79.04
2019-05-19T23:03:32.599Z,79.17
2019-05-19T23:06:01.038Z,79.31
2019-05-19T23:08:30.636Z,79.14
2019-05-19T23:10:59.032Z,79.53
2019-05-19T23:13:27.460Z,79.63
2019-05-19T23:15:55.957Z,80.14
2019-05-19T23:18:25.591Z,79.85
2019-05-19T23:20:54.145Z,79.64
2019-05-19T23:23:22.570Z,80.28
2019-05-19T23:25:51.003Z,80.49
2019-05-19T23:28:19.409Z,80.37
2019-05-19T23:30:47.848Z,80.65
2019-05-19T23:33:16.277Z,80.86
2019-05-19T23:35:44.702Z,81.02
2019-05-19T23:38:13.115Z,81.00
2019-05-19T23:40:41.549Z,81.75
2019-05-19T23:43:12.925Z,82.37
2019-05-19T23:45:41.448Z,81.72
2019-05-19T23:48:09.878Z,81.50
2019-05-19T23:50:38.319Z,81.86
2019-05-19T23:53:06.746Z,82.97
2019-05-19T23:55:35.175Z,83.36
2019-05-19T23:58:03.586Z,83.28
